Sunday, August 19, 2018, 12:26 AM GMT
Back to Local

CYOY, Valcartier Airport

Location: , , Canada Lat: 46.9
Local Time: 12:26 AM GMT ( 0:26 GMT) Lon: -71.5
Time Zone: GMT Elev: 551 ft

Show me the last for .
Show Decoded

2018-08-19 00:00 METAR CYOY 190000Z AUTO 00000KT 9SM CLR 17/15 A2995 RMK SLP146 =
2018-08-18 23:00 METAR CYOY 182300Z AUTO 14002KT 9SM CLR 22/14 A2994 RMK SLP140 =
2018-08-18 22:00 METAR CYOY 182200Z AUTO 14007KT 080V160 9SM CLR 23/14 A2992 RMK SLP135 =
2018-08-18 21:00 METAR CYOY 182100Z AUTO 12006KT 090V150 9SM CLR 23/14 A2991 RMK SLP131 =
2018-08-18 20:00 METAR CYOY 182000Z AUTO 13005KT 080V190 9SM CLR 24/16 A2990 RMK SLP128 =
2018-08-18 19:00 METAR CYOY 181900Z AUTO 10004KT 060V230 9SM CLR 24/16 A2990 RMK SLP127 =
2018-08-18 18:00 METAR CYOY 181800Z AUTO 13004KT 080V180 9SM CLR 24/17 A2990 RMK SLP128 =
2018-08-18 17:00 METAR CYOY 181700Z AUTO 10004KT 070V180 9SM FEW093 22/15 A2990 RMK SLP128 =
2018-08-18 16:00 METAR CYOY 181600Z AUTO 00000KT 9SM CLR 21/15 A2992 RMK SLP133 =
2018-08-18 15:00 METAR CYOY 181500Z AUTO 14002KT 9SM FEW098 20/15 A2991 RMK SLP131 =
2018-08-18 14:00 METAR CYOY 181400Z AUTO 03004KT 350V060 9SM CLR 19/14 A2991 RMK PCPN 0.5MM PAST
                 HR SLP130 =
2018-08-18 13:00 METAR CYOY 181300Z AUTO 02006KT 350V060 9SM FEW098 18/14 A2990 RMK SLP129 =
2018-08-18 12:00 METAR CYOY 181200Z AUTO 04005KT 010V100 9SM CLR 16/14 A2990 RMK SLP128 =
2018-08-18 11:00 METAR CYOY 181100Z AUTO 06002KT 9SM CLR 15/14 A2989 RMK SLP127 =
2018-08-18 10:17 METAR CYOY 181017Z AUTO 00000KT 9SM CLR 13/13 A2989 =
2018-08-18 10:03 METAR CYOY 181003Z AUTO 00000KT 2SM CLR 13/13 A2988 RMK VSBY VRBL 0.6V9.0 =
2018-08-18 10:00 METAR CYOY 181000Z AUTO 00000KT 1 1/4SM CLR 13/13 A2988 RMK VSBY VRBL 0.6V9.+
                 SLP123 =
2018-08-18 09:50 METAR CYOY 180950Z AUTO 00000KT 1 1/4SM CLR 13/13 A2988 RMK VSBY VRBL 0.6V9.+ =
2018-08-18 09:45 METAR CYOY 180945Z AUTO 00000KT 2 1/4SM CLR 13/13 A2988 RMK VSBY VRBL 0.6V9.+ =
2018-08-18 09:00 METAR CYOY 180900Z AUTO 01002KT 9SM CLR 14/14 A2987 RMK SLP117 =
2018-08-18 08:12 METAR CYOY 180812Z AUTO 09002KT 4SM CLR 14/14 A2986 RMK ICG PAST HR =
2018-08-18 08:08 METAR CYOY 180808Z AUTO 10002KT 1SM CLR 14/13 A2986 RMK VSBY VRBL 0.4V9.+ ICG
                 PAST HR =
2018-08-18 08:00 METAR CYOY 180800Z AUTO 00000KT 5/8SM CLR 13/13 A2986 RMK VSBY VRBL 0.4V1.8 ICG
                 PAST HR SLP115 =
2018-08-18 07:55 METAR CYOY 180755Z AUTO 00000KT 5/8SM CLR 13/13 A2986 RMK VSBY VRBL 0.4V9.+ ICG
                 PAST HR =
2018-08-18 07:54 METAR CYOY 180754Z AUTO 00000KT 3/4SM CLR 13/13 A2986 RMK VSBY VRBL 0.4V9.+ ICG
                 PAST HR =
2018-08-18 07:51 METAR CYOY 180751Z AUTO 00000KT 1 1/4SM CLR 13/13 A2986 RMK VSBY VRBL 0.4V9.+
                 ICG PAST HR =
2018-08-18 07:49 METAR CYOY 180749Z AUTO 00000KT 2SM CLR 14/13 A2986 RMK VSBY VRBL 0.4V9.+ ICG
                 PAST HR =
2018-08-18 07:00 METAR CYOY 180700Z AUTO 00000KT 9SM CLR 14/14 A2986 RMK ICG SLP116 =
2018-08-18 06:00 METAR CYOY 180600Z AUTO 00000KT 9SM CLR 15/14 A2986 RMK SLP115 =
2018-08-18 05:00 METAR CYOY 180500Z AUTO 00000KT 9SM SCT066 16/15 A2986 RMK PCPN 0.5MM PAST HR
                 SLP114 =
2018-08-18 04:27 METAR CYOY 180427Z AUTO 07004KT 010V090 9SM OVC042 16/15 A2986 =
2018-08-18 04:17 METAR CYOY 180417Z AUTO 06005KT 030V110 8SM -RA OVC037 16/15 A2986 =
2018-08-18 04:00 METAR CYOY 180400Z AUTO 05004KT 020V080 4SM -RA OVC024 16/15 A2987 RMK PCPN
                 2.5MM PAST HR SLP115 =
2018-08-18 03:32 METAR CYOY 180332Z AUTO 06004KT 020V100 3SM RA OVC017 16/15 A2987 =
2018-08-18 03:17 METAR CYOY 180317Z AUTO 04006KT 010V080 3SM RA VV006 17/15 A2987 =
2018-08-18 03:00 METAR CYOY 180300Z AUTO 03007KT 1 3/4SM RA BKN006 17/16 A2988 RMK PCPN 6.0MM
                 PAST HR SLP120 =
2018-08-18 02:24 METAR CYOY 180224Z AUTO 02008KT 1 3/4SM -RA VV009 17/16 A2988 =
2018-08-18 02:23 METAR CYOY 180223Z AUTO 02009KT 1 3/4SM -RA VV011 17/16 A2988 =
2018-08-18 02:22 METAR CYOY 180222Z AUTO 02009KT 1 3/4SM -RA OVC018 17/16 A2988 =
2018-08-18 02:19 METAR CYOY 180219Z AUTO 03009KT 1 3/4SM -RA OVC026 17/16 A2988 =
2018-08-18 02:10 METAR CYOY 180210Z AUTO 03007KT 2SM -RA VV012 17/16 A2988 =
2018-08-18 02:05 METAR CYOY 180205Z AUTO 02006KT 2 1/4SM -RA VV008 17/16 A2988 =
2018-08-18 02:00 METAR CYOY 180200Z AUTO 02006KT 3SM -RA VV008 17/16 A2989 RMK PCPN 15.0MM PAST
                 HR SLP123 =
2018-08-18 01:57 METAR CYOY 180157Z AUTO 03006KT 3SM -RA VV008 17/16 A2989 =
2018-08-18 01:37 METAR CYOY 180137Z AUTO 02008G15KT 1SM +RA VV006 17/16 A2989 =
2018-08-18 01:11 METAR CYOY 180111Z AUTO 02007KT 5/8SM RA VV007 17/16 A2988 =
2018-08-18 01:08 METAR CYOY 180108Z AUTO 02010KT 3/4SM RA VV007 17/16 A2988 =
2018-08-18 01:06 METAR CYOY 180106Z AUTO 02009KT 3/4SM RA FEW004 FEW007 BKN020 17/16 A2988 =
2018-08-18 01:05 METAR CYOY 180105Z AUTO 02009KT 1SM -RA FEW005 BKN020 17/16 A2988 =
2018-08-18 01:03 METAR CYOY 180103Z AUTO 03008KT 1SM -RA OVC005 17/16 A2988 =
2018-08-18 01:00 METAR CYOY 180100Z AUTO 03007KT 010V080 1 1/4SM -RA OVC004 17/16 A2988 RMK PCPN
                 1.5MM PAST HR SLP121 =
2018-08-18 00:59 METAR CYOY 180059Z AUTO 03006KT 010V090 1 1/4SM -RA OVC004 17/16 A2988 =
2018-08-18 00:57 METAR CYOY 180057Z AUTO 03006KT 010V130 1 1/2SM -RA OVC004 17/16 A2988 =
2018-08-18 00:46 METAR CYOY 180046Z AUTO 05003KT 360V150 2 1/2SM -RA BKN003 17/16 A2988 =
2018-08-18 00:44 METAR CYOY 180044Z AUTO 07002KT 3SM -RA OVC003 17/16 A2988 =
2018-08-18 00:42 METAR CYOY 180042Z AUTO 08004KT 2 1/2SM -RA OVC003 17/16 A2988 =
2018-08-18 00:39 METAR CYOY 180039Z AUTO 13004KT 070V230 2 1/2SM -RA BKN004 17/16 A2987 =

Support USWX by starting your Amazon purchase here.